sensor_id;sensor_type;location;lat;lon;timestamp;P1;durP1;ratioP1;P2;durP2;ratioP2
67278;SDS011;54193;53.746;10.058;2023-07-31T00:00:35;10.40;;;4.72;;
67278;SDS011;54193;53.746;10.058;2023-07-31T00:03:21;11.03;;;4.50;;
67278;SDS011;54193;53.746;10.058;2023-07-31T00:06:06;9.10;;;4.10;;
67278;SDS011;54193;53.746;10.058;2023-07-31T00:08:52;10.48;;;4.50;;
67278;SDS011;54193;53.746;10.058;2023-07-31T00:11:38;9.70;;;3.80;;
67278;SDS011;54193;53.746;10.058;2023-07-31T00:14:23;9.48;;;3.95;;
67278;SDS011;54193;53.746;10.058;2023-07-31T00:17:09;10.80;;;5.10;;
67278;SDS011;54193;53.746;10.058;2023-07-31T00:19:54;9.20;;;4.20;;
67278;SDS011;54193;53.746;10.058;2023-07-31T00:22:40;9.97;;;4.53;;
67278;SDS011;54193;53.746;10.058;2023-07-31T00:29:07;10.68;;;4.40;;
67278;SDS011;54193;53.746;10.058;2023-07-31T00:31:53;10.20;;;4.03;;
67278;SDS011;54193;53.746;10.058;2023-07-31T00:34:39;7.60;;;4.13;;
67278;SDS011;54193;53.746;10.058;2023-07-31T00:37:24;10.80;;;4.45;;
67278;SDS011;54193;53.746;10.058;2023-07-31T00:40:10;10.18;;;4.80;;
67278;SDS011;54193;53.746;10.058;2023-07-31T00:42:56;11.52;;;4.47;;
67278;SDS011;54193;53.746;10.058;2023-07-31T00:45:42;10.48;;;4.22;;
67278;SDS011;54193;53.746;10.058;2023-07-31T00:48:27;11.52;;;4.68;;
67278;SDS011;54193;53.746;10.058;2023-07-31T00:51:13;12.57;;;4.30;;
67278;SDS011;54193;53.746;10.058;2023-07-31T00:53:59;10.73;;;3.97;;
67278;SDS011;54193;53.746;10.058;2023-07-31T00:56:46;14.15;;;4.20;;
67278;SDS011;54193;53.746;10.058;2023-07-31T00:59:33;11.70;;;4.00;;
67278;SDS011;54193;53.746;10.058;2023-07-31T01:02:19;11.95;;;3.92;;
67278;SDS011;54193;53.746;10.058;2023-07-31T01:05:05;9.90;;;3.55;;
67278;SDS011;54193;53.746;10.058;2023-07-31T01:07:52;10.65;;;3.90;;
67278;SDS011;54193;53.746;10.058;2023-07-31T01:11:02;10.57;;;3.70;;
67278;SDS011;54193;53.746;10.058;2023-07-31T01:13:59;8.38;;;3.58;;
67278;SDS011;54193;53.746;10.058;2023-07-31T01:16:45;6.78;;;2.55;;
67278;SDS011;54193;53.746;10.058;2023-07-31T01:19:31;10.47;;;3.63;;
67278;SDS011;54193;53.746;10.058;2023-07-31T01:22:30;11.15;;;3.10;;
67278;SDS011;54193;53.746;10.058;2023-07-31T01:31:55;10.48;;;3.60;;
67278;SDS011;54193;53.746;10.058;2023-07-31T01:34:43;8.18;;;3.70;;
67278;SDS011;54193;53.746;10.058;2023-07-31T01:37:29;7.97;;;3.63;;
67278;SDS011;54193;53.746;10.058;2023-07-31T01:40:15;12.32;;;3.40;;
67278;SDS011;54193;53.746;10.058;2023-07-31T01:43:01;9.85;;;3.42;;
67278;SDS011;54193;53.746;10.058;2023-07-31T01:45:46;11.50;;;3.67;;
67278;SDS011;54193;53.746;10.058;2023-07-31T01:48:32;8.67;;;2.70;;
67278;SDS011;54193;53.746;10.058;2023-07-31T01:51:21;11.23;;;3.88;;
67278;SDS011;54193;53.746;10.058;2023-07-31T01:54:06;9.65;;;3.28;;
67278;SDS011;54193;53.746;10.058;2023-07-31T01:56:52;9.23;;;4.00;;
67278;SDS011;54193;53.746;10.058;2023-07-31T01:59:37;10.90;;;4.00;;
67278;SDS011;54193;53.746;10.058;2023-07-31T02:02:23;8.77;;;3.45;;
67278;SDS011;54193;53.746;10.058;2023-07-31T02:05:09;10.80;;;4.18;;
67278;SDS011;54193;53.746;10.058;2023-07-31T02:07:54;11.85;;;3.75;;
67278;SDS011;54193;53.746;10.058;2023-07-31T02:10:40;11.65;;;4.50;;
67278;SDS011;54193;53.746;10.058;2023-07-31T02:13:26;12.80;;;4.22;;
67278;SDS011;54193;53.746;10.058;2023-07-31T02:16:12;8.87;;;3.57;;
67278;SDS011;54193;53.746;10.058;2023-07-31T02:18:58;8.25;;;3.72;;
67278;SDS011;54193;53.746;10.058;2023-07-31T02:21:43;9.60;;;4.07;;
67278;SDS011;54193;53.746;10.058;2023-07-31T02:24:29;9.27;;;3.83;;
67278;SDS011;54193;53.746;10.058;2023-07-31T02:27:15;11.65;;;3.85;;
67278;SDS011;54193;53.746;10.058;2023-07-31T02:30:00;8.63;;;3.83;;
67278;SDS011;54193;53.746;10.058;2023-07-31T02:32:46;10.48;;;4.05;;
67278;SDS011;54193;53.746;10.058;2023-07-31T02:35:32;9.23;;;3.97;;
67278;SDS011;54193;53.746;10.058;2023-07-31T02:38:17;9.38;;;3.78;;
67278;SDS011;54193;53.746;10.058;2023-07-31T02:41:03;9.20;;;3.72;;
67278;SDS011;54193;53.746;10.058;2023-07-31T02:43:49;8.53;;;4.00;;
67278;SDS011;54193;53.746;10.058;2023-07-31T02:46:34;11.00;;;4.20;;
67278;SDS011;54193;53.746;10.058;2023-07-31T02:49:20;8.98;;;4.13;;
67278;SDS011;54193;53.746;10.058;2023-07-31T02:52:05;11.77;;;4.47;;
67278;SDS011;54193;53.746;10.058;2023-07-31T02:54:51;10.70;;;3.85;;
67278;SDS011;54193;53.746;10.058;2023-07-31T02:57:37;10.93;;;4.22;;
67278;SDS011;54193;53.746;10.058;2023-07-31T03:00:23;11.32;;;4.63;;
67278;SDS011;54193;53.746;10.058;2023-07-31T03:03:09;10.45;;;3.85;;
67278;SDS011;54193;53.746;10.058;2023-07-31T03:05:54;10.13;;;4.40;;
67278;SDS011;54193;53.746;10.058;2023-07-31T03:08:40;12.98;;;4.40;;
67278;SDS011;54193;53.746;10.058;2023-07-31T03:11:26;10.03;;;4.40;;
67278;SDS011;54193;53.746;10.058;2023-07-31T03:14:11;9.70;;;3.92;;
67278;SDS011;54193;53.746;10.058;2023-07-31T03:16:57;11.75;;;4.65;;
67278;SDS011;54193;53.746;10.058;2023-07-31T03:19:42;10.07;;;4.23;;
67278;SDS011;54193;53.746;10.058;2023-07-31T03:22:28;9.35;;;3.85;;
67278;SDS011;54193;53.746;10.058;2023-07-31T03:25:14;11.00;;;3.90;;
67278;SDS011;54193;53.746;10.058;2023-07-31T03:27:59;10.80;;;4.10;;
67278;SDS011;54193;53.746;10.058;2023-07-31T03:30:45;9.32;;;4.00;;
67278;SDS011;54193;53.746;10.058;2023-07-31T03:33:31;11.75;;;4.15;;
67278;SDS011;54193;53.746;10.058;2023-07-31T03:36:16;10.10;;;4.15;;
67278;SDS011;54193;53.746;10.058;2023-07-31T03:39:02;10.33;;;3.90;;
67278;SDS011;54193;53.746;10.058;2023-07-31T03:41:48;10.38;;;4.20;;
67278;SDS011;54193;53.746;10.058;2023-07-31T03:44:34;10.73;;;4.38;;
67278;SDS011;54193;53.746;10.058;2023-07-31T03:47:21;10.27;;;4.23;;
67278;SDS011;54193;53.746;10.058;2023-07-31T03:50:06;10.80;;;4.65;;
67278;SDS011;54193;53.746;10.058;2023-07-31T03:52:52;7.93;;;3.63;;
67278;SDS011;54193;53.746;10.058;2023-07-31T03:55:38;9.05;;;3.45;;
67278;SDS011;54193;53.746;10.058;2023-07-31T03:58:23;11.48;;;4.28;;
67278;SDS011;54193;53.746;10.058;2023-07-31T04:01:09;11.35;;;4.57;;
67278;SDS011;54193;53.746;10.058;2023-07-31T04:03:55;10.88;;;4.22;;
67278;SDS011;54193;53.746;10.058;2023-07-31T04:06:40;12.93;;;4.87;;
67278;SDS011;54193;53.746;10.058;2023-07-31T04:09:26;11.18;;;3.88;;
67278;SDS011;54193;53.746;10.058;2023-07-31T04:12:12;10.73;;;4.50;;
67278;SDS011;54193;53.746;10.058;2023-07-31T04:14:57;7.97;;;4.03;;
67278;SDS011;54193;53.746;10.058;2023-07-31T04:17:43;9.93;;;4.40;;
67278;SDS011;54193;53.746;10.058;2023-07-31T04:20:28;10.18;;;4.15;;
67278;SDS011;54193;53.746;10.058;2023-07-31T04:23:14;11.20;;;4.28;;
67278;SDS011;54193;53.746;10.058;2023-07-31T04:26:00;16.65;;;5.10;;
67278;SDS011;54193;53.746;10.058;2023-07-31T04:28:45;12.02;;;4.30;;
67278;SDS011;54193;53.746;10.058;2023-07-31T04:31:31;11.77;;;4.80;;
67278;SDS011;54193;53.746;10.058;2023-07-31T04:34:17;10.87;;;4.50;;
67278;SDS011;54193;53.746;10.058;2023-07-31T04:37:02;9.63;;;4.35;;
67278;SDS011;54193;53.746;10.058;2023-07-31T04:39:48;10.50;;;4.28;;
67278;SDS011;54193;53.746;10.058;2023-07-31T04:42:34;10.10;;;4.60;;
67278;SDS011;54193;53.746;10.058;2023-07-31T04:45:19;10.77;;;4.28;;
67278;SDS011;54193;53.746;10.058;2023-07-31T04:48:05;11.05;;;4.90;;
67278;SDS011;54193;53.746;10.058;2023-07-31T04:50:51;9.70;;;4.57;;
67278;SDS011;54193;53.746;10.058;2023-07-31T04:53:36;10.45;;;4.78;;
67278;SDS011;54193;53.746;10.058;2023-07-31T04:56:22;10.18;;;4.22;;
67278;SDS011;54193;53.746;10.058;2023-07-31T04:59:08;9.73;;;4.22;;
67278;SDS011;54193;53.746;10.058;2023-07-31T05:01:53;9.57;;;4.20;;
67278;SDS011;54193;53.746;10.058;2023-07-31T05:04:39;10.38;;;3.95;;
67278;SDS011;54193;53.746;10.058;2023-07-31T05:07:25;10.05;;;4.22;;
67278;SDS011;54193;53.746;10.058;2023-07-31T05:10:10;9.10;;;4.20;;
67278;SDS011;54193;53.746;10.058;2023-07-31T05:12:56;8.15;;;3.47;;
67278;SDS011;54193;53.746;10.058;2023-07-31T05:15:41;9.10;;;3.67;;
67278;SDS011;54193;53.746;10.058;2023-07-31T05:18:27;9.18;;;3.92;;
67278;SDS011;54193;53.746;10.058;2023-07-31T05:21:13;7.97;;;3.75;;
67278;SDS011;54193;53.746;10.058;2023-07-31T05:23:58;7.82;;;4.25;;
67278;SDS011;54193;53.746;10.058;2023-07-31T05:26:44;8.52;;;3.47;;
67278;SDS011;54193;53.746;10.058;2023-07-31T05:29:29;7.73;;;3.80;;
67278;SDS011;54193;53.746;10.058;2023-07-31T05:32:15;7.72;;;3.60;;
67278;SDS011;54193;53.746;10.058;2023-07-31T05:35:01;7.47;;;3.70;;
67278;SDS011;54193;53.746;10.058;2023-07-31T05:37:46;8.73;;;4.03;;
67278;SDS011;54193;53.746;10.058;2023-07-31T05:40:32;6.07;;;3.15;;
67278;SDS011;54193;53.746;10.058;2023-07-31T05:43:18;6.85;;;3.70;;
67278;SDS011;54193;53.746;10.058;2023-07-31T05:46:04;6.38;;;3.45;;
67278;SDS011;54193;53.746;10.058;2023-07-31T05:48:50;6.10;;;3.10;;
67278;SDS011;54193;53.746;10.058;2023-07-31T05:51:35;8.13;;;3.72;;
67278;SDS011;54193;53.746;10.058;2023-07-31T05:54:21;7.00;;;3.58;;
67278;SDS011;54193;53.746;10.058;2023-07-31T05:57:07;6.47;;;3.20;;
67278;SDS011;54193;53.746;10.058;2023-07-31T05:59:52;6.95;;;3.15;;
67278;SDS011;54193;53.746;10.058;2023-07-31T06:02:38;6.72;;;3.28;;
67278;SDS011;54193;53.746;10.058;2023-07-31T06:05:24;6.50;;;3.23;;
67278;SDS011;54193;53.746;10.058;2023-07-31T06:08:11;5.75;;;2.92;;
67278;SDS011;54193;53.746;10.058;2023-07-31T06:10:57;6.65;;;3.00;;
67278;SDS011;54193;53.746;10.058;2023-07-31T06:13:42;6.15;;;2.70;;
67278;SDS011;54193;53.746;10.058;2023-07-31T06:16:30;5.32;;;2.78;;
67278;SDS011;54193;53.746;10.058;2023-07-31T06:19:15;4.93;;;2.60;;
67278;SDS011;54193;53.746;10.058;2023-07-31T06:22:01;5.60;;;2.90;;
67278;SDS011;54193;53.746;10.058;2023-07-31T06:24:46;5.03;;;2.40;;
67278;SDS011;54193;53.746;10.058;2023-07-31T06:27:32;4.68;;;2.45;;
67278;SDS011;54193;53.746;10.058;2023-07-31T06:30:18;5.90;;;2.95;;
67278;SDS011;54193;53.746;10.058;2023-07-31T06:33:03;4.60;;;2.70;;
67278;SDS011;54193;53.746;10.058;2023-07-31T06:35:49;5.45;;;2.30;;
67278;SDS011;54193;53.746;10.058;2023-07-31T06:38:35;5.53;;;2.33;;
67278;SDS011;54193;53.746;10.058;2023-07-31T06:41:20;4.38;;;2.42;;
67278;SDS011;54193;53.746;10.058;2023-07-31T06:44:06;4.10;;;2.13;;
67278;SDS011;54193;53.746;10.058;2023-07-31T06:46:52;4.47;;;2.40;;
67278;SDS011;54193;53.746;10.058;2023-07-31T06:49:37;4.73;;;2.43;;
67278;SDS011;54193;53.746;10.058;2023-07-31T06:52:23;4.35;;;2.20;;
67278;SDS011;54193;53.746;10.058;2023-07-31T06:55:19;3.78;;;1.65;;
67278;SDS011;54193;53.746;10.058;2023-07-31T06:58:05;3.90;;;2.03;;
67278;SDS011;54193;53.746;10.058;2023-07-31T07:00:51;4.72;;;2.72;;
67278;SDS011;54193;53.746;10.058;2023-07-31T07:03:36;5.00;;;2.20;;
67278;SDS011;54193;53.746;10.058;2023-07-31T07:06:22;5.55;;;2.72;;
67278;SDS011;54193;53.746;10.058;2023-07-31T07:09:08;4.25;;;2.33;;
67278;SDS011;54193;53.746;10.058;2023-07-31T07:11:54;5.05;;;2.60;;
67278;SDS011;54193;53.746;10.058;2023-07-31T07:14:39;4.50;;;2.25;;
67278;SDS011;54193;53.746;10.058;2023-07-31T07:17:29;4.27;;;2.33;;
67278;SDS011;54193;53.746;10.058;2023-07-31T07:20:17;4.55;;;2.50;;
67278;SDS011;54193;53.746;10.058;2023-07-31T07:23:05;4.82;;;2.38;;
67278;SDS011;54193;53.746;10.058;2023-07-31T07:25:51;5.17;;;2.40;;
67278;SDS011;54193;53.746;10.058;2023-07-31T07:28:36;4.88;;;2.60;;
67278;SDS011;54193;53.746;10.058;2023-07-31T07:31:22;7.07;;;2.95;;
67278;SDS011;54193;53.746;10.058;2023-07-31T07:34:08;5.20;;;2.50;;
67278;SDS011;54193;53.746;10.058;2023-07-31T07:36:54;5.38;;;2.88;;
67278;SDS011;54193;53.746;10.058;2023-07-31T07:39:40;5.82;;;2.88;;
67278;SDS011;54193;53.746;10.058;2023-07-31T07:42:26;6.40;;;3.03;;
67278;SDS011;54193;53.746;10.058;2023-07-31T07:45:12;5.37;;;2.60;;
67278;SDS011;54193;53.746;10.058;2023-07-31T07:47:57;5.05;;;2.53;;
67278;SDS011;54193;53.746;10.058;2023-07-31T07:50:44;4.63;;;2.45;;
67278;SDS011;54193;53.746;10.058;2023-07-31T07:53:30;5.07;;;2.37;;
67278;SDS011;54193;53.746;10.058;2023-07-31T07:56:16;5.00;;;2.78;;
67278;SDS011;54193;53.746;10.058;2023-07-31T07:59:01;4.93;;;2.40;;
67278;SDS011;54193;53.746;10.058;2023-07-31T08:01:47;6.07;;;2.42;;
67278;SDS011;54193;53.746;10.058;2023-07-31T08:04:33;4.57;;;2.33;;
67278;SDS011;54193;53.746;10.058;2023-07-31T08:07:18;4.60;;;2.50;;
67278;SDS011;54193;53.746;10.058;2023-07-31T08:10:04;4.28;;;2.30;;
67278;SDS011;54193;53.746;10.058;2023-07-31T08:12:50;4.47;;;2.37;;
67278;SDS011;54193;53.746;10.058;2023-07-31T08:15:36;4.85;;;2.80;;
67278;SDS011;54193;53.746;10.058;2023-07-31T08:18:21;4.47;;;2.55;;
67278;SDS011;54193;53.746;10.058;2023-07-31T08:21:07;4.70;;;2.50;;
67278;SDS011;54193;53.746;10.058;2023-07-31T08:23:53;5.32;;;2.58;;
67278;SDS011;54193;53.746;10.058;2023-07-31T08:26:39;4.90;;;2.70;;
67278;SDS011;54193;53.746;10.058;2023-07-31T08:29:25;4.57;;;2.20;;
67278;SDS011;54193;53.746;10.058;2023-07-31T08:32:11;4.57;;;2.47;;
67278;SDS011;54193;53.746;10.058;2023-07-31T08:34:57;6.00;;;3.10;;
67278;SDS011;54193;53.746;10.058;2023-07-31T08:37:42;4.55;;;2.47;;
67278;SDS011;54193;53.746;10.058;2023-07-31T08:40:28;4.30;;;2.43;;
67278;SDS011;54193;53.746;10.058;2023-07-31T08:43:14;4.82;;;2.60;;
67278;SDS011;54193;53.746;10.058;2023-07-31T08:46:00;4.45;;;2.55;;
67278;SDS011;54193;53.746;10.058;2023-07-31T08:48:47;5.70;;;2.80;;
67278;SDS011;54193;53.746;10.058;2023-07-31T08:51:36;4.28;;;2.33;;
67278;SDS011;54193;53.746;10.058;2023-07-31T08:54:22;3.45;;;1.85;;
67278;SDS011;54193;53.746;10.058;2023-07-31T08:57:07;4.20;;;2.42;;
67278;SDS011;54193;53.746;10.058;2023-07-31T08:59:55;4.05;;;2.08;;
67278;SDS011;54193;53.746;10.058;2023-07-31T09:02:46;5.30;;;2.63;;
67278;SDS011;54193;53.746;10.058;2023-07-31T09:05:37;4.10;;;2.47;;
67278;SDS011;54193;53.746;10.058;2023-07-31T09:08:27;5.27;;;2.60;;
67278;SDS011;54193;53.746;10.058;2023-07-31T09:11:16;4.53;;;2.10;;
67278;SDS011;54193;53.746;10.058;2023-07-31T09:14:01;3.58;;;1.92;;
67278;SDS011;54193;53.746;10.058;2023-07-31T09:19:40;3.70;;;1.90;;
67278;SDS011;54193;53.746;10.058;2023-07-31T09:22:32;3.72;;;1.98;;
67278;SDS011;54193;53.746;10.058;2023-07-31T09:25:20;4.10;;;2.20;;
67278;SDS011;54193;53.746;10.058;2023-07-31T09:28:07;3.47;;;1.95;;
67278;SDS011;54193;53.746;10.058;2023-07-31T09:30:54;3.38;;;1.77;;
67278;SDS011;54193;53.746;10.058;2023-07-31T09:33:53;4.03;;;2.30;;
67278;SDS011;54193;53.746;10.058;2023-07-31T09:36:44;4.40;;;1.63;;
67278;SDS011;54193;53.746;10.058;2023-07-31T09:39:36;3.72;;;2.10;;
67278;SDS011;54193;53.746;10.058;2023-07-31T09:42:31;4.53;;;2.28;;
67278;SDS011;54193;53.746;10.058;2023-07-31T09:45:17;3.90;;;2.00;;
67278;SDS011;54193;53.746;10.058;2023-07-31T09:48:17;3.97;;;1.92;;
67278;SDS011;54193;53.746;10.058;2023-07-31T09:51:04;4.40;;;1.92;;
67278;SDS011;54193;53.746;10.058;2023-07-31T09:53:50;3.40;;;1.92;;
67278;SDS011;54193;53.746;10.058;2023-07-31T09:56:36;3.05;;;1.75;;
67278;SDS011;54193;53.746;10.058;2023-07-31T09:59:23;3.60;;;1.70;;
67278;SDS011;54193;53.746;10.058;2023-07-31T10:02:10;3.75;;;1.80;;
67278;SDS011;54193;53.746;10.058;2023-07-31T10:05:02;3.10;;;1.50;;
67278;SDS011;54193;53.746;10.058;2023-07-31T10:07:51;3.72;;;1.60;;
67278;SDS011;54193;53.746;10.058;2023-07-31T10:10:42;3.10;;;1.33;;
67278;SDS011;54193;53.746;10.058;2023-07-31T10:13:29;3.65;;;1.50;;
67278;SDS011;54193;53.746;10.058;2023-07-31T10:16:15;2.97;;;1.20;;
67278;SDS011;54193;53.746;10.058;2023-07-31T10:19:02;3.28;;;1.30;;
67278;SDS011;54193;53.746;10.058;2023-07-31T10:21:48;3.00;;;1.40;;
67278;SDS011;54193;53.746;10.058;2023-07-31T10:24:34;2.55;;;1.30;;
67278;SDS011;54193;53.746;10.058;2023-07-31T10:27:23;2.15;;;0.95;;
67278;SDS011;54193;53.746;10.058;2023-07-31T10:30:10;2.50;;;1.10;;
67278;SDS011;54193;53.746;10.058;2023-07-31T10:32:58;2.90;;;1.40;;
67278;SDS011;54193;53.746;10.058;2023-07-31T10:35:44;2.90;;;1.30;;
67278;SDS011;54193;53.746;10.058;2023-07-31T10:38:29;2.78;;;1.30;;
67278;SDS011;54193;53.746;10.058;2023-07-31T10:41:15;2.70;;;1.25;;
67278;SDS011;54193;53.746;10.058;2023-07-31T10:44:01;3.10;;;1.33;;
67278;SDS011;54193;53.746;10.058;2023-07-31T10:46:46;2.50;;;1.08;;
67278;SDS011;54193;53.746;10.058;2023-07-31T10:49:32;2.65;;;1.30;;
67278;SDS011;54193;53.746;10.058;2023-07-31T10:52:21;3.60;;;1.40;;
67278;SDS011;54193;53.746;10.058;2023-07-31T10:58:13;3.28;;;1.50;;
67278;SDS011;54193;53.746;10.058;2023-07-31T11:01:00;2.78;;;1.50;;
67278;SDS011;54193;53.746;10.058;2023-07-31T11:03:49;3.77;;;1.40;;
67278;SDS011;54193;53.746;10.058;2023-07-31T11:06:37;2.70;;;1.15;;
67278;SDS011;54193;53.746;10.058;2023-07-31T11:09:24;2.00;;;0.90;;
67278;SDS011;54193;53.746;10.058;2023-07-31T11:12:12;1.83;;;0.80;;
67278;SDS011;54193;53.746;10.058;2023-07-31T11:14:58;2.10;;;0.90;;
67278;SDS011;54193;53.746;10.058;2023-07-31T11:17:43;3.67;;;1.25;;
67278;SDS011;54193;53.746;10.058;2023-07-31T11:20:29;3.45;;;1.45;;
67278;SDS011;54193;53.746;10.058;2023-07-31T11:23:16;2.10;;;0.95;;
67278;SDS011;54193;53.746;10.058;2023-07-31T11:26:04;1.98;;;0.77;;
67278;SDS011;54193;53.746;10.058;2023-07-31T11:28:51;2.03;;;0.88;;
67278;SDS011;54193;53.746;10.058;2023-07-31T11:31:41;2.47;;;0.90;;
67278;SDS011;54193;53.746;10.058;2023-07-31T11:34:28;2.00;;;0.90;;
67278;SDS011;54193;53.746;10.058;2023-07-31T11:37:13;2.30;;;0.77;;
67278;SDS011;54193;53.746;10.058;2023-07-31T11:40:00;3.20;;;1.20;;
67278;SDS011;54193;53.746;10.058;2023-07-31T11:42:46;2.97;;;0.93;;
67278;SDS011;54193;53.746;10.058;2023-07-31T11:45:31;2.60;;;1.10;;
67278;SDS011;54193;53.746;10.058;2023-07-31T11:51:15;2.38;;;1.10;;
67278;SDS011;54193;53.746;10.058;2023-07-31T11:54:01;2.22;;;0.90;;
67278;SDS011;54193;53.746;10.058;2023-07-31T11:56:48;2.38;;;1.00;;
67278;SDS011;54193;53.746;10.058;2023-07-31T11:59:35;2.40;;;0.90;;
67278;SDS011;54193;53.746;10.058;2023-07-31T12:02:20;2.42;;;1.10;;
67278;SDS011;54193;53.746;10.058;2023-07-31T12:05:10;2.30;;;1.00;;
67278;SDS011;54193;53.746;10.058;2023-07-31T12:07:57;2.43;;;1.20;;
67278;SDS011;54193;53.746;10.058;2023-07-31T12:10:43;2.10;;;0.90;;
67278;SDS011;54193;53.746;10.058;2023-07-31T12:13:31;2.40;;;0.90;;
67278;SDS011;54193;53.746;10.058;2023-07-31T12:16:17;4.00;;;2.50;;
67278;SDS011;54193;53.746;10.058;2023-07-31T12:19:03;3.70;;;1.80;;
67278;SDS011;54193;53.746;10.058;2023-07-31T12:21:49;2.40;;;1.08;;
67278;SDS011;54193;53.746;10.058;2023-07-31T12:24:34;2.50;;;1.10;;
67278;SDS011;54193;53.746;10.058;2023-07-31T12:27:20;2.20;;;0.90;;
67278;SDS011;54193;53.746;10.058;2023-07-31T12:30:25;2.90;;;1.40;;
67278;SDS011;54193;53.746;10.058;2023-07-31T12:33:18;4.32;;;2.28;;
67278;SDS011;54193;53.746;10.058;2023-07-31T12:36:08;3.03;;;1.00;;
67278;SDS011;54193;53.746;10.058;2023-07-31T12:38:55;2.22;;;0.90;;
67278;SDS011;54193;53.746;10.058;2023-07-31T12:41:43;2.40;;;1.10;;
67278;SDS011;54193;53.746;10.058;2023-07-31T12:44:28;2.60;;;0.90;;
67278;SDS011;54193;53.746;10.058;2023-07-31T12:47:14;2.17;;;1.10;;
67278;SDS011;54193;53.746;10.058;2023-07-31T12:50:00;3.15;;;1.00;;
67278;SDS011;54193;53.746;10.058;2023-07-31T12:52:46;2.90;;;1.00;;
67278;SDS011;54193;53.746;10.058;2023-07-31T12:55:32;2.77;;;1.10;;
67278;SDS011;54193;53.746;10.058;2023-07-31T12:58:22;2.05;;;1.00;;
67278;SDS011;54193;53.746;10.058;2023-07-31T13:01:08;2.65;;;1.17;;
67278;SDS011;54193;53.746;10.058;2023-07-31T13:03:53;2.80;;;1.20;;
67278;SDS011;54193;53.746;10.058;2023-07-31T13:06:39;3.05;;;1.00;;
67278;SDS011;54193;53.746;10.058;2023-07-31T13:09:25;3.42;;;1.20;;
67278;SDS011;54193;53.746;10.058;2023-07-31T13:12:10;2.40;;;1.10;;
67278;SDS011;54193;53.746;10.058;2023-07-31T13:14:56;3.33;;;1.30;;
67278;SDS011;54193;53.746;10.058;2023-07-31T13:17:41;3.22;;;1.33;;
67278;SDS011;54193;53.746;10.058;2023-07-31T13:20:27;3.58;;;1.55;;
67278;SDS011;54193;53.746;10.058;2023-07-31T13:23:13;3.60;;;1.30;;
67278;SDS011;54193;53.746;10.058;2023-07-31T13:25:58;2.80;;;1.10;;
67278;SDS011;54193;53.746;10.058;2023-07-31T13:28:44;2.38;;;1.10;;
67278;SDS011;54193;53.746;10.058;2023-07-31T13:31:30;3.10;;;1.20;;
67278;SDS011;54193;53.746;10.058;2023-07-31T13:34:15;2.63;;;1.13;;
67278;SDS011;54193;53.746;10.058;2023-07-31T13:37:01;3.42;;;1.10;;
67278;SDS011;54193;53.746;10.058;2023-07-31T13:39:46;2.60;;;1.10;;
67278;SDS011;54193;53.746;10.058;2023-07-31T13:42:32;4.03;;;1.23;;
67278;SDS011;54193;53.746;10.058;2023-07-31T13:45:18;2.58;;;1.30;;
67278;SDS011;54193;53.746;10.058;2023-07-31T13:48:03;2.93;;;1.30;;
67278;SDS011;54193;53.746;10.058;2023-07-31T13:50:49;2.95;;;1.48;;
67278;SDS011;54193;53.746;10.058;2023-07-31T13:53:35;3.28;;;1.20;;
67278;SDS011;54193;53.746;10.058;2023-07-31T13:56:20;2.60;;;1.40;;
67278;SDS011;54193;53.746;10.058;2023-07-31T13:59:06;3.53;;;1.60;;
67278;SDS011;54193;53.746;10.058;2023-07-31T14:01:52;2.55;;;1.23;;
67278;SDS011;54193;53.746;10.058;2023-07-31T14:04:38;4.40;;;1.40;;
67278;SDS011;54193;53.746;10.058;2023-07-31T14:07:23;3.87;;;1.40;;
67278;SDS011;54193;53.746;10.058;2023-07-31T14:10:09;3.67;;;1.40;;
67278;SDS011;54193;53.746;10.058;2023-07-31T14:12:54;3.00;;;1.38;;
67278;SDS011;54193;53.746;10.058;2023-07-31T14:15:43;3.07;;;1.60;;
67278;SDS011;54193;53.746;10.058;2023-07-31T14:18:29;2.85;;;1.40;;
67278;SDS011;54193;53.746;10.058;2023-07-31T14:21:14;4.93;;;1.30;;
67278;SDS011;54193;53.746;10.058;2023-07-31T14:24:00;4.32;;;1.33;;
67278;SDS011;54193;53.746;10.058;2023-07-31T14:26:46;2.90;;;1.33;;
67278;SDS011;54193;53.746;10.058;2023-07-31T14:29:31;2.78;;;1.35;;
67278;SDS011;54193;53.746;10.058;2023-07-31T14:32:17;2.70;;;0.95;;
67278;SDS011;54193;53.746;10.058;2023-07-31T14:35:03;2.90;;;1.30;;
67278;SDS011;54193;53.746;10.058;2023-07-31T14:37:49;2.72;;;1.30;;
67278;SDS011;54193;53.746;10.058;2023-07-31T14:40:34;4.00;;;2.15;;
67278;SDS011;54193;53.746;10.058;2023-07-31T14:43:20;3.07;;;1.40;;
67278;SDS011;54193;53.746;10.058;2023-07-31T14:46:06;3.17;;;1.30;;
67278;SDS011;54193;53.746;10.058;2023-07-31T14:48:51;2.70;;;1.20;;
67278;SDS011;54193;53.746;10.058;2023-07-31T14:51:37;3.15;;;1.23;;
67278;SDS011;54193;53.746;10.058;2023-07-31T14:54:22;4.35;;;1.40;;
67278;SDS011;54193;53.746;10.058;2023-07-31T14:57:08;2.72;;;1.23;;
67278;SDS011;54193;53.746;10.058;2023-07-31T14:59:54;2.75;;;1.20;;
67278;SDS011;54193;53.746;10.058;2023-07-31T15:02:40;3.60;;;1.30;;
67278;SDS011;54193;53.746;10.058;2023-07-31T15:05:26;2.60;;;1.20;;
67278;SDS011;54193;53.746;10.058;2023-07-31T15:08:11;2.40;;;1.13;;
67278;SDS011;54193;53.746;10.058;2023-07-31T15:10:57;2.97;;;1.30;;
67278;SDS011;54193;53.746;10.058;2023-07-31T15:13:43;2.75;;;1.27;;
67278;SDS011;54193;53.746;10.058;2023-07-31T15:16:28;2.88;;;1.50;;
67278;SDS011;54193;53.746;10.058;2023-07-31T15:19:15;3.03;;;1.40;;
67278;SDS011;54193;53.746;10.058;2023-07-31T15:22:02;2.85;;;1.30;;
67278;SDS011;54193;53.746;10.058;2023-07-31T15:24:48;2.47;;;1.30;;
67278;SDS011;54193;53.746;10.058;2023-07-31T15:27:34;2.47;;;1.20;;
67278;SDS011;54193;53.746;10.058;2023-07-31T15:30:19;2.20;;;1.00;;
67278;SDS011;54193;53.746;10.058;2023-07-31T15:33:05;3.05;;;1.10;;
67278;SDS011;54193;53.746;10.058;2023-07-31T15:35:51;4.70;;;1.33;;
67278;SDS011;54193;53.746;10.058;2023-07-31T15:38:40;2.30;;;0.90;;
67278;SDS011;54193;53.746;10.058;2023-07-31T15:41:26;2.60;;;0.73;;
67278;SDS011;54193;53.746;10.058;2023-07-31T15:44:12;1.98;;;0.70;;
67278;SDS011;54193;53.746;10.058;2023-07-31T15:46:57;3.95;;;1.20;;
67278;SDS011;54193;53.746;10.058;2023-07-31T15:49:43;2.83;;;1.30;;
67278;SDS011;54193;53.746;10.058;2023-07-31T15:52:29;4.13;;;1.60;;
67278;SDS011;54193;53.746;10.058;2023-07-31T15:55:15;2.75;;;1.10;;
67278;SDS011;54193;53.746;10.058;2023-07-31T15:58:00;3.47;;;1.33;;
67278;SDS011;54193;53.746;10.058;2023-07-31T16:00:46;2.42;;;1.10;;
67278;SDS011;54193;53.746;10.058;2023-07-31T16:03:32;2.38;;;1.10;;
67278;SDS011;54193;53.746;10.058;2023-07-31T16:06:18;3.30;;;1.20;;
67278;SDS011;54193;53.746;10.058;2023-07-31T16:09:03;3.20;;;1.15;;
67278;SDS011;54193;53.746;10.058;2023-07-31T16:11:49;2.75;;;1.27;;
67278;SDS011;54193;53.746;10.058;2023-07-31T16:14:35;3.00;;;1.13;;
67278;SDS011;54193;53.746;10.058;2023-07-31T16:17:20;2.58;;;1.38;;
67278;SDS011;54193;53.746;10.058;2023-07-31T16:20:06;2.92;;;1.40;;
67278;SDS011;54193;53.746;10.058;2023-07-31T16:22:53;2.80;;;1.35;;
67278;SDS011;54193;53.746;10.058;2023-07-31T16:25:39;3.27;;;1.37;;
67278;SDS011;54193;53.746;10.058;2023-07-31T16:28:25;2.70;;;1.30;;
67278;SDS011;54193;53.746;10.058;2023-07-31T16:31:10;3.50;;;1.20;;
67278;SDS011;54193;53.746;10.058;2023-07-31T16:33:56;2.50;;;1.17;;
67278;SDS011;54193;53.746;10.058;2023-07-31T16:36:43;2.58;;;1.23;;
67278;SDS011;54193;53.746;10.058;2023-07-31T16:39:29;2.72;;;1.38;;
67278;SDS011;54193;53.746;10.058;2023-07-31T16:42:20;2.70;;;1.30;;